Terminal Aerodrome Forecast
Issued by NWS Portland, OR

Home | Current Version | Previous Version | Text Only | Print | Product List | Glossary On
Versions: 1 2 3 4 5 6 7 8 9 10 11 12 13 14 15 16 17 18
000
FTUS46 KPQR 171139
TAFAST
TAF
KAST 171139Z 1712/1812 11004KT P6SM OVC021
     FM171500 18006KT P6SM -RA OVC021
     FM171700 20012G18KT 5SM -RA BR BKN015 OVC030
     FM172100 29010KT P6SM VCSH BKN020 BKN045
     FM180000 20004KT P6SM SCT045=

USA.gov is the U.S. government's official web portal to all federal, state and local government web resources and services.